Terminal Aerodrome Forecast
Issued by NWS

Home | Current Version | Previous Version | Text Only | Print | Product List | Glossary On
Versions: 1 2 3 4 5 6 7 8 9 10 11 12 13 14 15 16 17 18 19 20
152
FTUS43 KICT 261543 AAA
TAFCNU
TAF AMD
KCNU 261543Z 2616/2712 16015G22KT P6SM SCT015 OVC035
     FM270100 16015G21KT P6SM VCTS BKN040CB
     FM270600 17013KT P6SM -SHRA VCTS BKN080CB=

USA.gov is the U.S. government's official web portal to all federal, state and local government web resources and services.